EmailTwitter


Observations de surface / France / LFPO (07149)

Régions: Québec | Canada | États-Unis | Europe | France | UK | Ailleurs
Station
Affichage
Infos & localisation pour LFPO (07149) | Aide pour décoder les METARs

Observations prises le 2018-01-24 à 09H30 UTC à PARIS/ORLY, FR (LFPO)

Etat du ciel: partiellement nuageux.

Température: 12.0 Celsius

Point de rosée: 10.0 Celsius

Humidité relative: 88%

Facteur vent: 10.

Vents: Sud-sud-ouest à 22 km/h ou 12 noeuds.

Pression au niveau moyen de la mer: 102.00 kilopascals.

Visibilité horizontale: 6.21 milles terrestres ou 9.94 kilomètres.

Hauteur du plafond: 396 mètres ( 1300 pieds ).

Observation METAR:

LFPO 240930Z 20012KT 9999 BKN013 12/10 Q1020 BECMG 21015G28KT BKN020=